sensor_id;sensor_type;location;lat;lon;timestamp;P1;P2;P0
61760;PMS5003;47664;51.660;-0.100;2022-11-20T00:00:26;26;23;
61760;PMS5003;47664;51.660;-0.100;2022-11-20T00:02:59;35;27;
61760;PMS5003;47664;51.660;-0.100;2022-11-20T00:05:32;38;30;
61760;PMS5003;47664;51.660;-0.100;2022-11-20T00:08:04;37;26;
61760;PMS5003;47664;51.660;-0.100;2022-11-20T00:10:36;34;32;
61760;PMS5003;47664;51.660;-0.100;2022-11-20T00:13:08;36;31;
61760;PMS5003;47664;51.660;-0.100;2022-11-20T00:15:40;36;27;
61760;PMS5003;47664;51.660;-0.100;2022-11-20T00:18:13;37;31;
61760;PMS5003;47664;51.660;-0.100;2022-11-20T00:20:45;41;33;
61760;PMS5003;47664;51.660;-0.100;2022-11-20T00:23:17;39;32;
61760;PMS5003;47664;51.660;-0.100;2022-11-20T00:25:49;37;28;
61760;PMS5003;47664;51.660;-0.100;2022-11-20T00:28:22;37;32;
61760;PMS5003;47664;51.660;-0.100;2022-11-20T00:31:00;38;32;
61760;PMS5003;47664;51.660;-0.100;2022-11-20T00:33:28;34;28;
61760;PMS5003;47664;51.660;-0.100;2022-11-20T00:36:00;44;32;
61760;PMS5003;47664;51.660;-0.100;2022-11-20T00:38:34;31;28;
61760;PMS5003;47664;51.660;-0.100;2022-11-20T00:41:07;33;28;
61760;PMS5003;47664;51.660;-0.100;2022-11-20T00:43:41;43;33;
61760;PMS5003;47664;51.660;-0.100;2022-11-20T00:46:14;35;30;
61760;PMS5003;47664;51.660;-0.100;2022-11-20T00:48:48;37;32;
61760;PMS5003;47664;51.660;-0.100;2022-11-20T00:51:21;39;32;
61760;PMS5003;47664;51.660;-0.100;2022-11-20T00:53:55;39;28;
61760;PMS5003;47664;51.660;-0.100;2022-11-20T00:56:27;33;27;
61760;PMS5003;47664;51.660;-0.100;2022-11-20T00:58:59;42;34;
61760;PMS5003;47664;51.660;-0.100;2022-11-20T01:01:32;32;28;
61760;PMS5003;47664;51.660;-0.100;2022-11-20T01:04:04;37;34;
61760;PMS5003;47664;51.660;-0.100;2022-11-20T01:06:37;32;30;
61760;PMS5003;47664;51.660;-0.100;2022-11-20T01:09:12;37;33;
61760;PMS5003;47664;51.660;-0.100;2022-11-20T01:11:41;36;33;
61760;PMS5003;47664;51.660;-0.100;2022-11-20T01:14:14;42;35;
61760;PMS5003;47664;51.660;-0.100;2022-11-20T01:16:47;28;26;
61760;PMS5003;47664;51.660;-0.100;2022-11-20T01:19:21;37;35;
61760;PMS5003;47664;51.660;-0.100;2022-11-20T01:21:53;39;34;
61760;PMS5003;47664;51.660;-0.100;2022-11-20T01:24:25;42;37;
61760;PMS5003;47664;51.660;-0.100;2022-11-20T01:26:57;42;32;
61760;PMS5003;47664;51.660;-0.100;2022-11-20T01:29:29;35;29;
61760;PMS5003;47664;51.660;-0.100;2022-11-20T01:32:02;46;35;
61760;PMS5003;47664;51.660;-0.100;2022-11-20T01:34:34;39;33;
61760;PMS5003;47664;51.660;-0.100;2022-11-20T01:37:05;39;35;
61760;PMS5003;47664;51.660;-0.100;2022-11-20T01:39:37;41;35;
61760;PMS5003;47664;51.660;-0.100;2022-11-20T01:42:10;39;32;
61760;PMS5003;47664;51.660;-0.100;2022-11-20T01:44:45;46;37;
61760;PMS5003;47664;51.660;-0.100;2022-11-20T01:47:17;44;38;
61760;PMS5003;47664;51.660;-0.100;2022-11-20T01:49:56;55;39;
61760;PMS5003;47664;51.660;-0.100;2022-11-20T01:52:30;44;37;
61760;PMS5003;47664;51.660;-0.100;2022-11-20T01:55:04;48;39;
61760;PMS5003;47664;51.660;-0.100;2022-11-20T01:57:40;47;41;
61760;PMS5003;47664;51.660;-0.100;2022-11-20T02:00:15;45;39;
61760;PMS5003;47664;51.660;-0.100;2022-11-20T02:02:49;40;36;
61760;PMS5003;47664;51.660;-0.100;2022-11-20T02:05:22;43;38;
61760;PMS5003;47664;51.660;-0.100;2022-11-20T02:07:59;41;35;
61760;PMS5003;47664;51.660;-0.100;2022-11-20T02:10:33;34;28;
61760;PMS5003;47664;51.660;-0.100;2022-11-20T02:13:05;42;35;
61760;PMS5003;47664;51.660;-0.100;2022-11-20T02:15:37;40;35;
61760;PMS5003;47664;51.660;-0.100;2022-11-20T02:18:10;37;33;
61760;PMS5003;47664;51.660;-0.100;2022-11-20T02:20:46;28;27;
61760;PMS5003;47664;51.660;-0.100;2022-11-20T02:23:16;36;29;
61760;PMS5003;47664;51.660;-0.100;2022-11-20T02:25:53;31;28;
61760;PMS5003;47664;51.660;-0.100;2022-11-20T02:28:28;35;31;
61760;PMS5003;47664;51.660;-0.100;2022-11-20T02:31:01;36;29;
61760;PMS5003;47664;51.660;-0.100;2022-11-20T02:33:33;38;30;
61760;PMS5003;47664;51.660;-0.100;2022-11-20T02:36:07;29;24;
61760;PMS5003;47664;51.660;-0.100;2022-11-20T02:38:42;32;30;
61760;PMS5003;47664;51.660;-0.100;2022-11-20T02:41:15;33;27;
61760;PMS5003;47664;51.660;-0.100;2022-11-20T02:43:47;33;27;
61760;PMS5003;47664;51.660;-0.100;2022-11-20T02:46:20;39;32;
61760;PMS5003;47664;51.660;-0.100;2022-11-20T02:48:52;34;27;
61760;PMS5003;47664;51.660;-0.100;2022-11-20T02:51:24;30;27;
61760;PMS5003;47664;51.660;-0.100;2022-11-20T02:53:57;29;23;
61760;PMS5003;47664;51.660;-0.100;2022-11-20T02:56:29;30;26;
61760;PMS5003;47664;51.660;-0.100;2022-11-20T02:59:04;22;20;
61760;PMS5003;47664;51.660;-0.100;2022-11-20T03:01:36;23;22;
61760;PMS5003;47664;51.660;-0.100;2022-11-20T03:04:08;29;24;
61760;PMS5003;47664;51.660;-0.100;2022-11-20T03:06:41;27;24;
61760;PMS5003;47664;51.660;-0.100;2022-11-20T03:09:13;29;22;
61760;PMS5003;47664;51.660;-0.100;2022-11-20T03:11:45;24;20;
61760;PMS5003;47664;51.660;-0.100;2022-11-20T03:14:18;19;19;
61760;PMS5003;47664;51.660;-0.100;2022-11-20T03:16:50;24;21;
61760;PMS5003;47664;51.660;-0.100;2022-11-20T03:19:23;26;22;
61760;PMS5003;47664;51.660;-0.100;2022-11-20T03:21:55;25;16;
61760;PMS5003;47664;51.660;-0.100;2022-11-20T03:24:27;18;16;
61760;PMS5003;47664;51.660;-0.100;2022-11-20T03:26:59;24;20;
61760;PMS5003;47664;51.660;-0.100;2022-11-20T03:29:31;22;19;
61760;PMS5003;47664;51.660;-0.100;2022-11-20T03:32:03;23;20;
61760;PMS5003;47664;51.660;-0.100;2022-11-20T03:34:36;22;19;
61760;PMS5003;47664;51.660;-0.100;2022-11-20T03:37:07;18;17;
61760;PMS5003;47664;51.660;-0.100;2022-11-20T03:39:40;27;22;
61760;PMS5003;47664;51.660;-0.100;2022-11-20T03:42:13;22;20;
61760;PMS5003;47664;51.660;-0.100;2022-11-20T03:44:44;24;19;
61760;PMS5003;47664;51.660;-0.100;2022-11-20T03:47:17;21;14;
61760;PMS5003;47664;51.660;-0.100;2022-11-20T03:49:49;18;16;
61760;PMS5003;47664;51.660;-0.100;2022-11-20T03:52:21;20;17;
61760;PMS5003;47664;51.660;-0.100;2022-11-20T03:54:53;15;15;
61760;PMS5003;47664;51.660;-0.100;2022-11-20T03:57:26;23;16;
61760;PMS5003;47664;51.660;-0.100;2022-11-20T03:59:58;20;14;
61760;PMS5003;47664;51.660;-0.100;2022-11-20T04:02:30;17;14;
61760;PMS5003;47664;51.660;-0.100;2022-11-20T04:05:02;20;17;
61760;PMS5003;47664;51.660;-0.100;2022-11-20T04:07:34;20;16;
61760;PMS5003;47664;51.660;-0.100;2022-11-20T04:10:07;21;17;
61760;PMS5003;47664;51.660;-0.100;2022-11-20T04:12:39;24;18;
61760;PMS5003;47664;51.660;-0.100;2022-11-20T04:15:11;22;13;
61760;PMS5003;47664;51.660;-0.100;2022-11-20T04:17:43;18;17;
61760;PMS5003;47664;51.660;-0.100;2022-11-20T04:20:16;16;14;
61760;PMS5003;47664;51.660;-0.100;2022-11-20T04:22:47;21;15;
61760;PMS5003;47664;51.660;-0.100;2022-11-20T04:25:19;17;14;
61760;PMS5003;47664;51.660;-0.100;2022-11-20T04:27:51;18;15;
61760;PMS5003;47664;51.660;-0.100;2022-11-20T04:30:24;18;17;
61760;PMS5003;47664;51.660;-0.100;2022-11-20T04:32:57;12;12;
61760;PMS5003;47664;51.660;-0.100;2022-11-20T04:35:29;15;13;
61760;PMS5003;47664;51.660;-0.100;2022-11-20T04:38:02;21;14;
61760;PMS5003;47664;51.660;-0.100;2022-11-20T04:40:35;17;14;
61760;PMS5003;47664;51.660;-0.100;2022-11-20T04:43:07;18;13;
61760;PMS5003;47664;51.660;-0.100;2022-11-20T04:45:39;17;12;
61760;PMS5003;47664;51.660;-0.100;2022-11-20T04:48:17;16;13;
61760;PMS5003;47664;51.660;-0.100;2022-11-20T04:50:49;12;12;
61760;PMS5003;47664;51.660;-0.100;2022-11-20T04:53:22;15;11;
61760;PMS5003;47664;51.660;-0.100;2022-11-20T04:55:59;11;9;
61760;PMS5003;47664;51.660;-0.100;2022-11-20T04:58:26;16;13;
61760;PMS5003;47664;51.660;-0.100;2022-11-20T05:01:00;9;9;
61760;PMS5003;47664;51.660;-0.100;2022-11-20T05:03:33;10;10;
61760;PMS5003;47664;51.660;-0.100;2022-11-20T05:06:06;11;8;
61760;PMS5003;47664;51.660;-0.100;2022-11-20T05:08:39;7;7;
61760;PMS5003;47664;51.660;-0.100;2022-11-20T05:11:13;17;13;
61760;PMS5003;47664;51.660;-0.100;2022-11-20T05:13:47;5;5;
61760;PMS5003;47664;51.660;-0.100;2022-11-20T05:16:20;12;6;
61760;PMS5003;47664;51.660;-0.100;2022-11-20T05:18:53;6;4;
61760;PMS5003;47664;51.660;-0.100;2022-11-20T05:21:25;9;8;
61760;PMS5003;47664;51.660;-0.100;2022-11-20T05:23:57;7;7;
61760;PMS5003;47664;51.660;-0.100;2022-11-20T05:26:30;6;4;
61760;PMS5003;47664;51.660;-0.100;2022-11-20T05:29:01;7;6;
61760;PMS5003;47664;51.660;-0.100;2022-11-20T05:31:35;5;5;
61760;PMS5003;47664;51.660;-0.100;2022-11-20T05:34:07;9;6;
61760;PMS5003;47664;51.660;-0.100;2022-11-20T05:36:40;8;7;
61760;PMS5003;47664;51.660;-0.100;2022-11-20T05:39:13;10;7;
61760;PMS5003;47664;51.660;-0.100;2022-11-20T05:41:45;6;5;
61760;PMS5003;47664;51.660;-0.100;2022-11-20T05:44:17;13;9;
61760;PMS5003;47664;51.660;-0.100;2022-11-20T05:46:49;7;7;
61760;PMS5003;47664;51.660;-0.100;2022-11-20T05:49:21;7;4;
61760;PMS5003;47664;51.660;-0.100;2022-11-20T05:51:53;5;5;
61760;PMS5003;47664;51.660;-0.100;2022-11-20T05:54:25;11;10;
61760;PMS5003;47664;51.660;-0.100;2022-11-20T05:56:57;4;4;
61760;PMS5003;47664;51.660;-0.100;2022-11-20T05:59:29;6;6;
61760;PMS5003;47664;51.660;-0.100;2022-11-20T06:02:02;5;5;
61760;PMS5003;47664;51.660;-0.100;2022-11-20T06:04:34;6;5;
61760;PMS5003;47664;51.660;-0.100;2022-11-20T06:07:06;8;7;
61760;PMS5003;47664;51.660;-0.100;2022-11-20T06:09:38;8;7;
61760;PMS5003;47664;51.660;-0.100;2022-11-20T06:12:10;6;6;
61760;PMS5003;47664;51.660;-0.100;2022-11-20T06:14:42;8;8;
61760;PMS5003;47664;51.660;-0.100;2022-11-20T06:17:14;11;8;
61760;PMS5003;47664;51.660;-0.100;2022-11-20T06:19:47;5;5;
61760;PMS5003;47664;51.660;-0.100;2022-11-20T06:22:19;9;7;
61760;PMS5003;47664;51.660;-0.100;2022-11-20T06:24:51;6;6;
61760;PMS5003;47664;51.660;-0.100;2022-11-20T06:27:23;9;7;
61760;PMS5003;47664;51.660;-0.100;2022-11-20T06:29:55;8;7;
61760;PMS5003;47664;51.660;-0.100;2022-11-20T06:32:27;8;8;
61760;PMS5003;47664;51.660;-0.100;2022-11-20T06:34:59;10;8;
61760;PMS5003;47664;51.660;-0.100;2022-11-20T06:37:32;10;9;
61760;PMS5003;47664;51.660;-0.100;2022-11-20T06:40:05;15;11;
61760;PMS5003;47664;51.660;-0.100;2022-11-20T06:42:37;12;11;
61760;PMS5003;47664;51.660;-0.100;2022-11-20T06:45:10;15;14;
61760;PMS5003;47664;51.660;-0.100;2022-11-20T06:47:42;8;7;
61760;PMS5003;47664;51.660;-0.100;2022-11-20T06:50:14;10;8;
61760;PMS5003;47664;51.660;-0.100;2022-11-20T06:52:46;11;10;
61760;PMS5003;47664;51.660;-0.100;2022-11-20T06:55:18;12;9;
61760;PMS5003;47664;51.660;-0.100;2022-11-20T06:57:50;9;8;
61760;PMS5003;47664;51.660;-0.100;2022-11-20T07:00:22;10;10;
61760;PMS5003;47664;51.660;-0.100;2022-11-20T07:02:54;10;9;
61760;PMS5003;47664;51.660;-0.100;2022-11-20T07:05:29;14;10;
61760;PMS5003;47664;51.660;-0.100;2022-11-20T07:08:02;9;9;
61760;PMS5003;47664;51.660;-0.100;2022-11-20T07:10:34;8;8;
61760;PMS5003;47664;51.660;-0.100;2022-11-20T07:13:06;13;10;
61760;PMS5003;47664;51.660;-0.100;2022-11-20T07:15:38;14;10;
61760;PMS5003;47664;51.660;-0.100;2022-11-20T07:18:11;11;10;
61760;PMS5003;47664;51.660;-0.100;2022-11-20T07:20:43;9;9;
61760;PMS5003;47664;51.660;-0.100;2022-11-20T07:23:15;10;10;
61760;PMS5003;47664;51.660;-0.100;2022-11-20T07:25:47;15;10;
61760;PMS5003;47664;51.660;-0.100;2022-11-20T07:28:19;11;10;
61760;PMS5003;47664;51.660;-0.100;2022-11-20T07:30:51;11;11;
61760;PMS5003;47664;51.660;-0.100;2022-11-20T07:33:25;11;11;
61760;PMS5003;47664;51.660;-0.100;2022-11-20T07:35:58;7;7;
61760;PMS5003;47664;51.660;-0.100;2022-11-20T07:38:31;14;12;
61760;PMS5003;47664;51.660;-0.100;2022-11-20T07:41:03;10;9;
61760;PMS5003;47664;51.660;-0.100;2022-11-20T07:43:35;12;9;
61760;PMS5003;47664;51.660;-0.100;2022-11-20T07:46:07;9;9;
61760;PMS5003;47664;51.660;-0.100;2022-11-20T07:48:39;15;11;
61760;PMS5003;47664;51.660;-0.100;2022-11-20T07:51:11;15;12;
61760;PMS5003;47664;51.660;-0.100;2022-11-20T07:53:44;11;9;
61760;PMS5003;47664;51.660;-0.100;2022-11-20T07:56:17;15;12;
61760;PMS5003;47664;51.660;-0.100;2022-11-20T07:58:49;11;9;
61760;PMS5003;47664;51.660;-0.100;2022-11-20T08:01:22;14;12;
61760;PMS5003;47664;51.660;-0.100;2022-11-20T08:03:54;19;13;
61760;PMS5003;47664;51.660;-0.100;2022-11-20T08:06:26;12;10;
61760;PMS5003;47664;51.660;-0.100;2022-11-20T08:08:58;13;11;
61760;PMS5003;47664;51.660;-0.100;2022-11-20T08:11:30;13;13;
61760;PMS5003;47664;51.660;-0.100;2022-11-20T08:14:02;9;9;
61760;PMS5003;47664;51.660;-0.100;2022-11-20T08:16:35;12;11;
61760;PMS5003;47664;51.660;-0.100;2022-11-20T08:19:07;10;10;
61760;PMS5003;47664;51.660;-0.100;2022-11-20T08:21:41;14;9;
61760;PMS5003;47664;51.660;-0.100;2022-11-20T08:24:12;13;11;
61760;PMS5003;47664;51.660;-0.100;2022-11-20T08:26:45;18;15;
61760;PMS5003;47664;51.660;-0.100;2022-11-20T08:29:17;11;10;
61760;PMS5003;47664;51.660;-0.100;2022-11-20T08:31:49;9;9;
61760;PMS5003;47664;51.660;-0.100;2022-11-20T08:34:21;11;9;
61760;PMS5003;47664;51.660;-0.100;2022-11-20T08:36:53;8;6;
61760;PMS5003;47664;51.660;-0.100;2022-11-20T08:39:27;16;10;
61760;PMS5003;47664;51.660;-0.100;2022-11-20T08:41:59;7;7;
61760;PMS5003;47664;51.660;-0.100;2022-11-20T08:44:32;8;6;
61760;PMS5003;47664;51.660;-0.100;2022-11-20T08:47:04;11;8;
61760;PMS5003;47664;51.660;-0.100;2022-11-20T08:49:37;13;8;
61760;PMS5003;47664;51.660;-0.100;2022-11-20T08:52:09;7;7;
61760;PMS5003;47664;51.660;-0.100;2022-11-20T08:54:41;7;5;
61760;PMS5003;47664;51.660;-0.100;2022-11-20T08:57:13;7;7;
61760;PMS5003;47664;51.660;-0.100;2022-11-20T08:59:45;7;7;
61760;PMS5003;47664;51.660;-0.100;2022-11-20T09:02:17;10;8;
61760;PMS5003;47664;51.660;-0.100;2022-11-20T09:04:49;8;6;
61760;PMS5003;47664;51.660;-0.100;2022-11-20T09:07:21;4;4;
61760;PMS5003;47664;51.660;-0.100;2022-11-20T09:09:54;5;4;
61760;PMS5003;47664;51.660;-0.100;2022-11-20T09:12:26;4;4;
61760;PMS5003;47664;51.660;-0.100;2022-11-20T09:14:58;10;7;
61760;PMS5003;47664;51.660;-0.100;2022-11-20T09:17:31;6;4;
61760;PMS5003;47664;51.660;-0.100;2022-11-20T09:20:03;5;4;
61760;PMS5003;47664;51.660;-0.100;2022-11-20T09:22:39;4;4;
61760;PMS5003;47664;51.660;-0.100;2022-11-20T09:25:11;3;3;
61760;PMS5003;47664;51.660;-0.100;2022-11-20T09:27:44;7;5;
61760;PMS5003;47664;51.660;-0.100;2022-11-20T09:30:21;6;5;
61760;PMS5003;47664;51.660;-0.100;2022-11-20T09:32:54;6;4;
61760;PMS5003;47664;51.660;-0.100;2022-11-20T09:35:26;9;4;
61760;PMS5003;47664;51.660;-0.100;2022-11-20T09:37:58;3;3;
61760;PMS5003;47664;51.660;-0.100;2022-11-20T09:40:32;5;4;
61760;PMS5003;47664;51.660;-0.100;2022-11-20T09:43:11;6;6;
61760;PMS5003;47664;51.660;-0.100;2022-11-20T09:45:54;6;6;
61760;PMS5003;47664;51.660;-0.100;2022-11-20T09:48:34;7;5;
61760;PMS5003;47664;51.660;-0.100;2022-11-20T09:51:12;5;4;
61760;PMS5003;47664;51.660;-0.100;2022-11-20T09:53:53;6;4;
61760;PMS5003;47664;51.660;-0.100;2022-11-20T09:56:28;7;5;
61760;PMS5003;47664;51.660;-0.100;2022-11-20T09:59:04;6;3;
61760;PMS5003;47664;51.660;-0.100;2022-11-20T10:01:49;3;2;
61760;PMS5003;47664;51.660;-0.100;2022-11-20T10:04:22;7;2;
61760;PMS5003;47664;51.660;-0.100;2022-11-20T10:06:56;4;3;
61760;PMS5003;47664;51.660;-0.100;2022-11-20T10:09:32;8;7;
61760;PMS5003;47664;51.660;-0.100;2022-11-20T10:12:05;7;4;
61760;PMS5003;47664;51.660;-0.100;2022-11-20T10:14:45;5;3;
61760;PMS5003;47664;51.660;-0.100;2022-11-20T10:17:24;5;4;
61760;PMS5003;47664;51.660;-0.100;2022-11-20T10:20:11;6;5;
61760;PMS5003;47664;51.660;-0.100;2022-11-20T10:22:51;5;3;
61760;PMS5003;47664;51.660;-0.100;2022-11-20T10:25:30;4;4;
61760;PMS5003;47664;51.660;-0.100;2022-11-20T10:28:11;8;3;
61760;PMS5003;47664;51.660;-0.100;2022-11-20T10:30:50;9;3;
61760;PMS5003;47664;51.660;-0.100;2022-11-20T10:33:23;2;2;
61760;PMS5003;47664;51.660;-0.100;2022-11-20T10:36:04;6;6;
61760;PMS5003;47664;51.660;-0.100;2022-11-20T10:38:39;8;5;
61760;PMS5003;47664;51.660;-0.100;2022-11-20T10:41:16;7;2;
61760;PMS5003;47664;51.660;-0.100;2022-11-20T10:43:50;3;3;
61760;PMS5003;47664;51.660;-0.100;2022-11-20T10:46:23;5;4;
61760;PMS5003;47664;51.660;-0.100;2022-11-20T10:49:04;8;3;
61760;PMS5003;47664;51.660;-0.100;2022-11-20T10:51:40;6;3;
61760;PMS5003;47664;51.660;-0.100;2022-11-20T10:54:20;10;6;
61760;PMS5003;47664;51.660;-0.100;2022-11-20T10:56:56;6;3;
61760;PMS5003;47664;51.660;-0.100;2022-11-20T10:59:35;4;3;
61760;PMS5003;47664;51.660;-0.100;2022-11-20T11:02:17;8;2;
61760;PMS5003;47664;51.660;-0.100;2022-11-20T11:04:46;6;3;
61760;PMS5003;47664;51.660;-0.100;2022-11-20T11:07:21;6;3;
61760;PMS5003;47664;51.660;-0.100;2022-11-20T11:09:52;3;1;
61760;PMS5003;47664;51.660;-0.100;2022-11-20T11:12:25;6;1;
61760;PMS5003;47664;51.660;-0.100;2022-11-20T11:14:57;5;3;
61760;PMS5003;47664;51.660;-0.100;2022-11-20T11:17:31;2;2;
61760;PMS5003;47664;51.660;-0.100;2022-11-20T11:20:15;5;1;
61760;PMS5003;47664;51.660;-0.100;2022-11-20T11:22:45;6;4;
61760;PMS5003;47664;51.660;-0.100;2022-11-20T11:25:20;4;3;
61760;PMS5003;47664;51.660;-0.100;2022-11-20T11:27:55;10;5;
61760;PMS5003;47664;51.660;-0.100;2022-11-20T11:30:30;5;1;
61760;PMS5003;47664;51.660;-0.100;2022-11-20T11:33:09;4;3;
61760;PMS5003;47664;51.660;-0.100;2022-11-20T11:35:46;7;4;
61760;PMS5003;47664;51.660;-0.100;2022-11-20T11:38:21;3;1;
61760;PMS5003;47664;51.660;-0.100;2022-11-20T11:40:54;8;5;
61760;PMS5003;47664;51.660;-0.100;2022-11-20T11:43:29;10;4;
61760;PMS5003;47664;51.660;-0.100;2022-11-20T11:46:04;4;1;
61760;PMS5003;47664;51.660;-0.100;2022-11-20T11:48:56;6;5;
61760;PMS5003;47664;51.660;-0.100;2022-11-20T11:51:41;8;3;
61760;PMS5003;47664;51.660;-0.100;2022-11-20T11:54:27;6;2;
61760;PMS5003;47664;51.660;-0.100;2022-11-20T11:56:58;2;2;
61760;PMS5003;47664;51.660;-0.100;2022-11-20T11:59:33;7;4;
61760;PMS5003;47664;51.660;-0.100;2022-11-20T12:02:15;5;2;
61760;PMS5003;47664;51.660;-0.100;2022-11-20T12:04:57;4;4;
61760;PMS5003;47664;51.660;-0.100;2022-11-20T12:07:32;19;12;
61760;PMS5003;47664;51.660;-0.100;2022-11-20T12:10:08;8;2;
61760;PMS5003;47664;51.660;-0.100;2022-11-20T12:12:44;6;3;
61760;PMS5003;47664;51.660;-0.100;2022-11-20T12:15:23;3;3;
61760;PMS5003;47664;51.660;-0.100;2022-11-20T12:17:55;4;2;
61760;PMS5003;47664;51.660;-0.100;2022-11-20T12:20:29;3;2;
61760;PMS5003;47664;51.660;-0.100;2022-11-20T12:23:02;8;3;
61760;PMS5003;47664;51.660;-0.100;2022-11-20T12:25:35;2;2;
61760;PMS5003;47664;51.660;-0.100;2022-11-20T12:28:14;6;4;
61760;PMS5003;47664;51.660;-0.100;2022-11-20T12:30:50;9;2;
61760;PMS5003;47664;51.660;-0.100;2022-11-20T12:33:37;9;2;
61760;PMS5003;47664;51.660;-0.100;2022-11-20T12:36:27;5;2;
61760;PMS5003;47664;51.660;-0.100;2022-11-20T12:39:08;2;2;
61760;PMS5003;47664;51.660;-0.100;2022-11-20T12:41:51;3;3;
61760;PMS5003;47664;51.660;-0.100;2022-11-20T12:44:36;5;2;
61760;PMS5003;47664;51.660;-0.100;2022-11-20T12:47:19;7;4;
61760;PMS5003;47664;51.660;-0.100;2022-11-20T12:49:59;10;7;
61760;PMS5003;47664;51.660;-0.100;2022-11-20T12:52:38;10;6;
61760;PMS5003;47664;51.660;-0.100;2022-11-20T12:55:16;9;3;
61760;PMS5003;47664;51.660;-0.100;2022-11-20T12:57:53;6;4;
61760;PMS5003;47664;51.660;-0.100;2022-11-20T13:00:35;8;3;
61760;PMS5003;47664;51.660;-0.100;2022-11-20T13:03:20;10;2;
61760;PMS5003;47664;51.660;-0.100;2022-11-20T13:06:01;5;2;
61760;PMS5003;47664;51.660;-0.100;2022-11-20T13:08:39;7;2;
61760;PMS5003;47664;51.660;-0.100;2022-11-20T13:11:17;2;0;
61760;PMS5003;47664;51.660;-0.100;2022-11-20T13:14:03;4;2;
61760;PMS5003;47664;51.660;-0.100;2022-11-20T13:16:38;6;2;
61760;PMS5003;47664;51.660;-0.100;2022-11-20T13:19:12;12;6;
61760;PMS5003;47664;51.660;-0.100;2022-11-20T13:21:45;9;8;
61760;PMS5003;47664;51.660;-0.100;2022-11-20T13:24:22;3;1;
61760;PMS5003;47664;51.660;-0.100;2022-11-20T13:26:59;5;5;
61760;PMS5003;47664;51.660;-0.100;2022-11-20T13:29:28;2;1;
61760;PMS5003;47664;51.660;-0.100;2022-11-20T13:32:02;2;2;
61760;PMS5003;47664;51.660;-0.100;2022-11-20T13:34:31;5;5;
61760;PMS5003;47664;51.660;-0.100;2022-11-20T13:37:03;6;5;
61760;PMS5003;47664;51.660;-0.100;2022-11-20T13:39:50;5;3;
61760;PMS5003;47664;51.660;-0.100;2022-11-20T13:42:31;5;5;
61760;PMS5003;47664;51.660;-0.100;2022-11-20T13:45:08;5;3;
61760;PMS5003;47664;51.660;-0.100;2022-11-20T13:47:37;6;5;
61760;PMS5003;47664;51.660;-0.100;2022-11-20T13:50:14;11;4;
61760;PMS5003;47664;51.660;-0.100;2022-11-20T13:52:55;3;3;
61760;PMS5003;47664;51.660;-0.100;2022-11-20T13:55:33;4;2;
61760;PMS5003;47664;51.660;-0.100;2022-11-20T13:58:24;2;2;
61760;PMS5003;47664;51.660;-0.100;2022-11-20T14:01:00;4;2;
61760;PMS5003;47664;51.660;-0.100;2022-11-20T14:03:41;2;2;
61760;PMS5003;47664;51.660;-0.100;2022-11-20T14:06:11;5;1;
61760;PMS5003;47664;51.660;-0.100;2022-11-20T14:08:45;5;2;
61760;PMS5003;47664;51.660;-0.100;2022-11-20T14:11:19;8;1;
61760;PMS5003;47664;51.660;-0.100;2022-11-20T14:13:54;7;1;
61760;PMS5003;47664;51.660;-0.100;2022-11-20T14:16:25;1;0;
61760;PMS5003;47664;51.660;-0.100;2022-11-20T14:19:17;1;1;
61760;PMS5003;47664;51.660;-0.100;2022-11-20T14:21:53;6;5;
61760;PMS5003;47664;51.660;-0.100;2022-11-20T14:25:01;7;3;
61760;PMS5003;47664;51.660;-0.100;2022-11-20T14:27:32;4;2;
61760;PMS5003;47664;51.660;-0.100;2022-11-20T14:30:11;3;2;
61760;PMS5003;47664;51.660;-0.100;2022-11-20T14:32:41;5;2;
61760;PMS5003;47664;51.660;-0.100;2022-11-20T14:35:16;3;2;
61760;PMS5003;47664;51.660;-0.100;2022-11-20T14:37:49;6;3;
61760;PMS5003;47664;51.660;-0.100;2022-11-20T14:40:24;3;2;
61760;PMS5003;47664;51.660;-0.100;2022-11-20T14:42:58;2;2;
61760;PMS5003;47664;51.660;-0.100;2022-11-20T14:45:43;6;1;
61760;PMS5003;47664;51.660;-0.100;2022-11-20T14:48:21;3;1;
61760;PMS5003;47664;51.660;-0.100;2022-11-20T14:50:55;4;2;
61760;PMS5003;47664;51.660;-0.100;2022-11-20T14:53:28;7;4;
61760;PMS5003;47664;51.660;-0.100;2022-11-20T14:56:01;4;3;
61760;PMS5003;47664;51.660;-0.100;2022-11-20T14:58:34;5;2;
61760;PMS5003;47664;51.660;-0.100;2022-11-20T15:01:07;4;3;
61760;PMS5003;47664;51.660;-0.100;2022-11-20T15:03:40;3;3;
61760;PMS5003;47664;51.660;-0.100;2022-11-20T15:06:12;10;7;
61760;PMS5003;47664;51.660;-0.100;2022-11-20T15:08:52;4;1;
61760;PMS5003;47664;51.660;-0.100;2022-11-20T15:11:27;117;110;
61760;PMS5003;47664;51.660;-0.100;2022-11-20T15:13:57;7;4;
61760;PMS5003;47664;51.660;-0.100;2022-11-20T15:16:31;3;1;
61760;PMS5003;47664;51.660;-0.100;2022-11-20T15:19:08;5;3;
61760;PMS5003;47664;51.660;-0.100;2022-11-20T15:21:42;0;0;
61760;PMS5003;47664;51.660;-0.100;2022-11-20T15:24:14;6;2;
61760;PMS5003;47664;51.660;-0.100;2022-11-20T15:26:46;1;1;
61760;PMS5003;47664;51.660;-0.100;2022-11-20T15:29:19;3;1;
61760;PMS5003;47664;51.660;-0.100;2022-11-20T15:31:52;7;3;
61760;PMS5003;47664;51.660;-0.100;2022-11-20T15:34:26;3;2;
61760;PMS5003;47664;51.660;-0.100;2022-11-20T15:36:58;3;1;
61760;PMS5003;47664;51.660;-0.100;2022-11-20T15:39:31;5;2;
61760;PMS5003;47664;51.660;-0.100;2022-11-20T15:42:03;3;2;
61760;PMS5003;47664;51.660;-0.100;2022-11-20T15:44:35;3;0;
61760;PMS5003;47664;51.660;-0.100;2022-11-20T15:47:07;0;0;
61760;PMS5003;47664;51.660;-0.100;2022-11-20T15:49:39;3;1;
61760;PMS5003;47664;51.660;-0.100;2022-11-20T15:52:11;2;2;
61760;PMS5003;47664;51.660;-0.100;2022-11-20T15:54:43;3;1;
61760;PMS5003;47664;51.660;-0.100;2022-11-20T15:57:15;7;1;
61760;PMS5003;47664;51.660;-0.100;2022-11-20T15:59:47;2;2;
61760;PMS5003;47664;51.660;-0.100;2022-11-20T16:02:19;0;0;
61760;PMS5003;47664;51.660;-0.100;2022-11-20T16:04:51;1;1;
61760;PMS5003;47664;51.660;-0.100;2022-11-20T16:07:23;3;1;
61760;PMS5003;47664;51.660;-0.100;2022-11-20T16:09:55;2;1;
61760;PMS5003;47664;51.660;-0.100;2022-11-20T16:12:27;5;4;
61760;PMS5003;47664;51.660;-0.100;2022-11-20T16:14:59;4;3;
61760;PMS5003;47664;51.660;-0.100;2022-11-20T16:17:32;7;3;
61760;PMS5003;47664;51.660;-0.100;2022-11-20T16:20:05;1;0;
61760;PMS5003;47664;51.660;-0.100;2022-11-20T16:22:38;5;2;
61760;PMS5003;47664;51.660;-0.100;2022-11-20T16:25:10;3;1;
61760;PMS5003;47664;51.660;-0.100;2022-11-20T16:27:42;4;3;
61760;PMS5003;47664;51.660;-0.100;2022-11-20T16:30:14;5;1;
61760;PMS5003;47664;51.660;-0.100;2022-11-20T16:32:46;4;3;
61760;PMS5003;47664;51.660;-0.100;2022-11-20T16:35:19;4;2;
61760;PMS5003;47664;51.660;-0.100;2022-11-20T16:37:52;4;4;
61760;PMS5003;47664;51.660;-0.100;2022-11-20T16:40:24;5;2;
61760;PMS5003;47664;51.660;-0.100;2022-11-20T16:42:57;2;2;
61760;PMS5003;47664;51.660;-0.100;2022-11-20T16:45:34;6;3;
61760;PMS5003;47664;51.660;-0.100;2022-11-20T16:48:11;8;5;
61760;PMS5003;47664;51.660;-0.100;2022-11-20T16:50:44;4;4;
61760;PMS5003;47664;51.660;-0.100;2022-11-20T16:53:12;3;3;
61760;PMS5003;47664;51.660;-0.100;2022-11-20T16:55:45;5;3;
61760;PMS5003;47664;51.660;-0.100;2022-11-20T16:58:17;9;5;
61760;PMS5003;47664;51.660;-0.100;2022-11-20T17:00:50;3;1;
61760;PMS5003;47664;51.660;-0.100;2022-11-20T17:03:22;4;1;
61760;PMS5003;47664;51.660;-0.100;2022-11-20T17:05:54;3;0;